Time;durP1;ratioP1;P1;durP2;ratioP2;P2;SDS_P1;SDS_P2;PMS_P1;PMS_P2;Temp;Humidity;BMP_temperature;BMP_pressure;BME280_temperature;BME280_humidity;BME280_pressure;Samples;Min_cycle;Max_cycle;Signal;HPM_P1;HPM_P2
2023/06/21 00:00:15;;;;;;;26.63;24.02;;;23.00;99.90;;;;;;2076263;28;20051;-76
2023/06/21 00:01:19;;;;;;;26.80;24.10;;;22.90;99.90;;;;;;2079236;28;20032;-76
2023/06/21 00:02:20;;;;;;;27.10;24.50;;;23.00;99.90;;;;;;2082392;28;20036;-77
2023/06/21 00:03:20;;;;;;;27.80;24.75;;;23.00;99.90;;;;;;2091560;28;20056;-76
2023/06/21 00:04:21;;;;;;;26.83;24.10;;;23.00;99.90;;;;;;2098047;28;20301;-75
2023/06/21 00:05:21;;;;;;;26.88;24.08;;;23.00;99.90;;;;;;2083539;28;20017;-76
2023/06/21 00:06:22;;;;;;;26.77;24.13;;;23.00;99.90;;;;;;2087538;28;20025;-76
2023/06/21 00:07:23;;;;;;;28.20;25.17;;;23.00;99.90;;;;;;2089594;28;20028;-76
2023/06/21 00:08:24;;;;;;;28.65;25.75;;;23.00;99.90;;;;;;2086810;28;20024;-76
2023/06/21 00:09:25;;;;;;;28.05;25.25;;;23.00;99.90;;;;;;2086733;28;20373;-76
2023/06/21 00:10:28;;;;;;;27.67;24.80;;;23.00;99.90;;;;;;2084313;28;20488;-76
2023/06/21 00:11:29;;;;;;;26.92;24.33;;;22.90;99.90;;;;;;2085928;28;20557;-76
2023/06/21 00:12:30;;;;;;;28.35;25.27;;;22.90;99.90;;;;;;2086955;28;20567;-75
2023/06/21 00:13:31;;;;;;;28.38;25.48;;;22.90;99.90;;;;;;2079993;28;20026;-75
2023/06/21 00:14:31;;;;;;;26.83;24.23;;;22.90;99.90;;;;;;2083287;28;20091;-76
2023/06/21 00:15:32;;;;;;;27.42;24.70;;;22.90;99.90;;;;;;2079477;28;20159;-76
2023/06/21 00:16:32;;;;;;;27.60;24.85;;;22.90;99.90;;;;;;2085528;28;20055;-76
2023/06/21 00:17:33;;;;;;;28.15;25.13;;;23.00;99.90;;;;;;2083257;28;20025;-76
2023/06/21 00:18:33;;;;;;;29.50;26.48;;;23.00;99.90;;;;;;2076352;28;20041;-76
2023/06/21 00:19:34;;;;;;;29.00;26.10;;;22.90;99.90;;;;;;2086100;28;20027;-75
2023/06/21 00:20:37;;;;;;;28.65;25.85;;;23.00;99.90;;;;;;2088978;28;20107;-76
2023/06/21 00:21:38;;;;;;;28.33;25.42;;;22.90;99.90;;;;;;2078024;28;20056;-76
2023/06/21 00:22:40;;;;;;;28.17;25.40;;;23.00;99.90;;;;;;2085842;28;20029;-77
2023/06/21 00:23:44;;;;;;;27.95;25.17;;;23.00;99.90;;;;;;2074864;28;20060;-76
2023/06/21 00:24:44;;;;;;;28.52;25.67;;;23.00;99.90;;;;;;2081382;28;20032;-77
2023/06/21 00:25:45;;;;;;;27.63;24.80;;;22.90;99.90;;;;;;2086103;28;20255;-77
2023/06/21 00:26:45;;;;;;;26.98;24.30;;;22.90;99.90;;;;;;2086774;28;20041;-76
2023/06/21 00:27:48;;;;;;;29.75;26.65;;;22.90;99.90;;;;;;2085949;28;20459;-76
2023/06/21 00:28:48;;;;;;;28.25;25.23;;;22.90;99.90;;;;;;2084756;28;20045;-75
2023/06/21 00:29:49;;;;;;;28.33;25.52;;;22.90;99.90;;;;;;2087909;28;20029;-75
2023/06/21 00:30:50;;;;;;;28.35;25.50;;;22.90;99.90;;;;;;2088162;28;20083;-74
2023/06/21 00:31:51;;;;;;;27.35;24.60;;;22.90;99.90;;;;;;2087868;28;20028;-74
2023/06/21 00:32:52;;;;;;;27.38;24.65;;;22.90;99.90;;;;;;2087350;28;20048;-75
2023/06/21 00:33:53;;;;;;;27.15;24.35;;;22.90;99.90;;;;;;2087142;28;20446;-74
2023/06/21 00:34:53;;;;;;;26.27;23.77;;;22.90;99.90;;;;;;2097014;28;20482;-75
2023/06/21 00:35:54;;;;;;;26.75;24.25;;;22.90;99.90;;;;;;2102849;28;20077;-76
2023/06/21 00:36:54;;;;;;;27.17;24.42;;;22.90;99.90;;;;;;2085776;28;20384;-76
2023/06/21 00:37:55;;;;;;;26.77;24.17;;;22.90;99.90;;;;;;2086174;28;20428;-75
2023/06/21 00:38:56;;;;;;;26.88;24.17;;;22.90;99.90;;;;;;2089504;28;20113;-76
2023/06/21 00:39:56;;;;;;;25.70;23.30;;;23.00;99.90;;;;;;2074317;28;20082;-76
2023/06/21 00:40:57;;;;;;;26.48;23.65;;;22.90;99.90;;;;;;2079242;28;20025;-75
2023/06/21 00:41:59;;;;;;;26.73;24.13;;;23.00;99.90;;;;;;2083858;28;20028;-75
2023/06/21 00:43:00;;;;;;;27.42;24.63;;;23.00;99.90;;;;;;2087697;28;20028;-76
2023/06/21 00:44:01;;;;;;;26.67;23.80;;;23.00;99.90;;;;;;2079943;28;20025;-74
2023/06/21 00:45:01;;;;;;;27.60;24.75;;;23.00;99.90;;;;;;2082939;28;20060;-76
2023/06/21 00:46:02;;;;;;;28.10;25.20;;;23.00;99.90;;;;;;2086754;28;20519;-75
2023/06/21 00:47:03;;;;;;;27.92;25.23;;;23.00;99.90;;;;;;2086415;28;20143;-76
2023/06/21 00:48:04;;;;;;;28.33;25.42;;;23.00;99.90;;;;;;2088555;28;20048;-76
2023/06/21 00:49:04;;;;;;;30.15;26.98;;;23.00;99.90;;;;;;2088200;28;20028;-77
2023/06/21 00:50:05;;;;;;;29.42;26.25;;;23.00;99.90;;;;;;2083691;28;20589;-74
2023/06/21 00:51:07;;;;;;;32.75;29.40;;;23.00;99.90;;;;;;2084483;28;20025;-76
2023/06/21 00:52:07;;;;;;;31.17;28.08;;;22.90;99.90;;;;;;2091835;28;20047;-76
2023/06/21 00:53:09;;;;;;;31.17;28.02;;;22.80;99.90;;;;;;2077643;28;20508;-77
2023/06/21 00:54:16;;;;;;;34.50;30.13;;;22.80;99.90;;;;;;2087063;28;20530;-77
2023/06/21 00:55:19;;;;;;;34.70;29.13;;;22.80;99.90;;;;;;2086408;28;20151;-77
2023/06/21 00:56:19;;;;;;;35.17;29.13;;;22.80;99.90;;;;;;2085898;28;20042;-76
2023/06/21 00:57:20;;;;;;;32.85;28.67;;;22.70;99.90;;;;;;2085843;28;20488;-76
2023/06/21 00:58:21;;;;;;;32.95;27.23;;;22.70;99.90;;;;;;2085946;28;20511;-75
2023/06/21 00:59:22;;;;;;;33.92;28.17;;;22.60;99.90;;;;;;2089004;28;20548;-76
2023/06/21 01:00:24;;;;;;;30.50;26.95;;;22.60;99.90;;;;;;2087355;28;20617;-74
2023/06/21 01:01:26;;;;;;;28.88;25.83;;;22.50;99.90;;;;;;2095530;28;20032;-75
2023/06/21 01:02:27;;;;;;;28.92;26.02;;;22.40;99.90;;;;;;2087251;28;20031;-74
2023/06/21 01:03:28;;;;;;;31.15;27.95;;;22.40;99.90;;;;;;2087208;28;20031;-75
2023/06/21 01:04:31;;;;;;;30.48;27.27;;;22.30;99.90;;;;;;2088613;28;20392;-74
2023/06/21 01:05:34;;;;;;;29.42;26.50;;;22.20;99.90;;;;;;2084760;28;20428;-75
2023/06/21 01:06:47;;;;;;;29.83;26.55;;;22.10;99.90;;;;;;2083667;28;20033;-76
2023/06/21 01:08:00;;;;;;;32.63;29.20;;;22.00;99.90;;;;;;2078064;28;20025;-75
2023/06/21 01:09:13;;;;;;;30.45;27.42;;;22.00;99.90;;;;;;2087159;28;20029;-75
2023/06/21 01:10:41;;;;;;;31.17;27.88;;;22.00;99.90;;;;;;2085419;28;20403;-75
2023/06/21 01:11:53;;;;;;;34.33;30.52;;;21.90;99.90;;;;;;2090844;28;20432;-75
2023/06/21 01:13:23;;;;;;;33.53;29.98;;;21.90;99.90;;;;;;2080674;28;20054;-76
2023/06/21 01:15:05;;;;;;;32.22;28.70;;;21.90;99.90;;;;;;2082334;28;20033;-75
2023/06/21 01:16:17;;;;;;;30.55;27.45;;;21.90;99.90;;;;;;2076429;28;20025;-76
2023/06/21 01:17:20;;;;;;;32.65;29.35;;;21.80;99.90;;;;;;2088129;28;20424;-77
2023/06/21 01:18:22;;;;;;;31.00;27.75;;;21.80;99.90;;;;;;2089652;28;20043;-76
2023/06/21 01:19:44;;;;;;;29.63;26.73;;;21.80;99.90;;;;;;2088553;28;20058;-77
2023/06/21 01:20:51;;;;;;;31.85;27.52;;;21.80;99.90;;;;;;2088233;28;20021;-76
2023/06/21 01:21:53;;;;;;;29.95;26.52;;;21.80;99.90;;;;;;2081899;28;20040;-76
2023/06/21 01:23:28;;;;;;;29.27;26.35;;;21.90;99.90;;;;;;2079363;28;20021;-77
2023/06/21 01:24:53;;;;;;;29.75;26.75;;;21.90;99.90;;;;;;2082949;28;20045;-77
2023/06/21 01:26:28;;;;;;;30.23;27.27;;;21.90;99.90;;;;;;2083778;28;20103;-76
2023/06/21 01:27:56;;;;;;;30.17;27.23;;;21.90;99.90;;;;;;2085014;28;20025;-76
2023/06/21 01:29:11;;;;;;;29.70;26.75;;;21.90;99.90;;;;;;2087846;28;20033;-75
2023/06/21 01:30:16;;;;;;;30.08;26.95;;;21.90;99.90;;;;;;2080452;28;20411;-75
2023/06/21 01:31:17;;;;;;;30.10;27.10;;;21.90;99.90;;;;;;2088455;28;20083;-75
2023/06/21 01:32:18;;;;;;;29.88;26.85;;;21.80;99.90;;;;;;2086773;28;20506;-75
2023/06/21 01:33:19;;;;;;;30.17;27.05;;;21.80;99.90;;;;;;2082534;28;20160;-76
2023/06/21 01:34:20;;;;;;;28.83;25.92;;;21.90;99.90;;;;;;2086891;28;20543;-75
2023/06/21 01:35:21;;;;;;;28.00;24.98;;;21.90;99.90;;;;;;2087020;28;20128;-75
2023/06/21 01:36:22;;;;;;;29.20;25.17;;;21.90;99.90;;;;;;2084313;28;20025;-75
2023/06/21 01:37:23;;;;;;;25.65;22.90;;;21.90;99.90;;;;;;2085546;28;20052;-75
2023/06/21 01:38:24;;;;;;;25.75;23.05;;;21.90;99.90;;;;;;2090445;28;20466;-77
2023/06/21 01:39:28;;;;;;;23.92;20.75;;;21.90;99.90;;;;;;2085401;28;20082;-75
2023/06/21 01:40:29;;;;;;;23.25;20.63;;;22.00;99.90;;;;;;2078194;28;20040;-75
2023/06/21 01:41:30;;;;;;;22.63;20.25;;;22.00;99.90;;;;;;2088148;28;20043;-76
2023/06/21 01:42:30;;;;;;;22.17;19.58;;;22.00;99.90;;;;;;2086534;28;20059;-76
2023/06/21 01:43:31;;;;;;;23.08;19.30;;;22.00;99.90;;;;;;2082811;28;20025;-75
2023/06/21 01:44:32;;;;;;;23.50;18.80;;;22.10;99.90;;;;;;2087804;28;20070;-76
2023/06/21 01:45:33;;;;;;;21.27;17.35;;;22.10;99.90;;;;;;2085660;28;20515;-77
2023/06/21 01:46:34;;;;;;;20.15;17.38;;;22.20;99.90;;;;;;2088196;28;20028;-76
2023/06/21 01:47:36;;;;;;;21.98;16.40;;;22.20;99.90;;;;;;2086560;28;20028;-77
2023/06/21 01:48:38;;;;;;;20.27;15.50;;;22.20;99.90;;;;;;2086437;28;20036;-76
2023/06/21 01:49:40;;;;;;;17.75;15.50;;;22.30;99.90;;;;;;2085711;28;20667;-76
2023/06/21 01:50:42;;;;;;;17.67;15.13;;;22.30;99.90;;;;;;2078404;28;20029;-76
2023/06/21 01:51:44;;;;;;;17.98;15.05;;;22.30;99.90;;;;;;2089219;28;20593;-76
2023/06/21 01:52:46;;;;;;;16.73;14.20;;;22.30;99.90;;;;;;2075728;28;20073;-76
2023/06/21 01:53:48;;;;;;;18.83;14.20;;;22.40;99.90;;;;;;2077067;28;20072;-77
2023/06/21 01:54:49;;;;;;;17.60;14.23;;;22.30;99.90;;;;;;2088486;28;20021;-76
2023/06/21 01:55:52;;;;;;;16.85;13.52;;;22.40;99.90;;;;;;2089649;28;20036;-76
2023/06/21 01:57:00;;;;;;;16.52;13.93;;;22.40;99.90;;;;;;2071002;28;20033;-76
2023/06/21 01:58:02;;;;;;;16.25;13.82;;;22.40;99.90;;;;;;2071419;28;20033;-77
2023/06/21 01:59:03;;;;;;;15.68;13.20;;;22.40;99.90;;;;;;2062959;28;20026;-76
2023/06/21 02:00:17;;;;;;;14.50;13.00;;;22.40;99.90;;;;;;2062631;28;20030;-76
2023/06/21 02:01:20;;;;;;;16.73;14.80;;;22.40;99.90;;;;;;2091008;28;20025;-75
2023/06/21 02:02:22;;;;;;;16.63;13.68;;;22.40;99.90;;;;;;2094989;28;20462;-76
2023/06/21 02:03:24;;;;;;;14.52;12.80;;;22.40;99.90;;;;;;2078903;28;20028;-75
2023/06/21 02:04:26;;;;;;;15.57;13.05;;;22.40;99.90;;;;;;2090292;28;20047;-75
2023/06/21 02:05:27;;;;;;;19.50;13.55;;;22.40;99.90;;;;;;2084913;28;20048;-76
2023/06/21 02:06:32;;;;;;;16.58;13.02;;;22.40;99.90;;;;;;2084998;28;20029;-75
2023/06/21 02:07:34;;;;;;;13.93;12.27;;;22.30;99.90;;;;;;2088269;28;20558;-76
2023/06/21 02:08:37;;;;;;;14.93;12.73;;;22.30;99.90;;;;;;2088732;28;20028;-77
2023/06/21 02:09:39;;;;;;;13.73;12.20;;;22.30;99.90;;;;;;2088273;28;20021;-76
2023/06/21 02:10:40;;;;;;;16.70;12.15;;;22.30;99.90;;;;;;2084227;28;20024;-76
2023/06/21 02:11:43;;;;;;;16.38;11.98;;;22.30;99.90;;;;;;2090164;28;20077;-75
2023/06/21 02:12:47;;;;;;;15.50;12.73;;;22.30;99.90;;;;;;2087125;28;20420;-76
2023/06/21 02:13:48;;;;;;;14.88;12.23;;;22.30;99.90;;;;;;2079154;28;20141;-76
2023/06/21 02:14:50;;;;;;;16.13;13.02;;;22.30;99.90;;;;;;2070840;28;20080;-75
2023/06/21 02:15:51;;;;;;;14.40;12.02;;;22.30;99.90;;;;;;2073445;28;20123;-74
2023/06/21 02:16:52;;;;;;;15.02;12.55;;;22.30;99.90;;;;;;2085718;28;20021;-75
2023/06/21 02:17:52;;;;;;;15.85;12.48;;;22.30;99.90;;;;;;2084237;28;20064;-75
2023/06/21 02:18:54;;;;;;;19.52;12.20;;;22.30;99.90;;;;;;2079634;28;20029;-75
2023/06/21 02:19:55;;;;;;;15.45;11.95;;;22.30;99.90;;;;;;2081908;28;20028;-75
2023/06/21 02:20:57;;;;;;;15.45;12.15;;;22.30;99.90;;;;;;2080986;28;20025;-75
2023/06/21 02:21:58;;;;;;;15.02;12.45;;;22.30;99.90;;;;;;2077291;28;20025;-75
2023/06/21 02:22:58;;;;;;;15.18;12.25;;;22.30;99.90;;;;;;2081120;28;20487;-78
2023/06/21 02:23:59;;;;;;;14.57;12.05;;;22.20;99.90;;;;;;2078812;28;20213;-77
2023/06/21 02:24:59;;;;;;;14.05;11.95;;;22.20;99.90;;;;;;2082406;28;20064;-76
2023/06/21 02:26:00;;;;;;;14.25;11.50;;;22.20;99.90;;;;;;2089404;28;20634;-76
2023/06/21 02:27:01;;;;;;;14.15;11.88;;;22.20;99.90;;;;;;2090412;28;20025;-76
2023/06/21 02:28:02;;;;;;;14.55;12.00;;;22.20;99.90;;;;;;2092605;28;20035;-77
2023/06/21 02:29:03;;;;;;;17.23;11.98;;;22.20;99.90;;;;;;2093290;28;20246;-76
2023/06/21 02:30:05;;;;;;;16.40;12.07;;;22.20;99.90;;;;;;2088363;28;20283;-76
2023/06/21 02:31:06;;;;;;;14.73;11.85;;;22.30;99.90;;;;;;2086600;28;20071;-76
2023/06/21 02:32:08;;;;;;;14.73;12.32;;;22.30;99.90;;;;;;2086436;28;20128;-76
2023/06/21 02:33:09;;;;;;;16.00;12.10;;;22.30;99.90;;;;;;2086990;28;20173;-75
2023/06/21 02:34:10;;;;;;;14.43;11.93;;;22.30;99.90;;;;;;2087787;28;20037;-74
2023/06/21 02:35:10;;;;;;;15.13;11.50;;;22.30;99.90;;;;;;2090808;28;20028;-75
2023/06/21 02:36:11;;;;;;;13.52;10.75;;;22.40;99.90;;;;;;2087988;28;20021;-75
2023/06/21 02:37:12;;;;;;;16.42;11.27;;;22.40;99.90;;;;;;2087749;28;20378;-75
2023/06/21 02:38:13;;;;;;;13.88;11.32;;;22.40;99.90;;;;;;2087812;28;20028;-76
2023/06/21 02:39:13;;;;;;;13.43;11.05;;;22.40;99.90;;;;;;2087619;28;20039;-75
2023/06/21 02:40:14;;;;;;;14.93;11.70;;;22.40;99.90;;;;;;2088122;28;20029;-75
2023/06/21 02:41:15;;;;;;;13.85;11.32;;;22.40;99.90;;;;;;2088956;28;20474;-76
2023/06/21 02:42:15;;;;;;;14.23;11.30;;;22.40;99.90;;;;;;2086952;28;20090;-75
2023/06/21 02:43:16;;;;;;;14.30;10.98;;;22.40;99.90;;;;;;2086865;28;20029;-77
2023/06/21 02:44:18;;;;;;;12.32;10.13;;;22.40;99.90;;;;;;2087294;28;20128;-75
2023/06/21 02:45:18;;;;;;;14.90;9.90;;;22.40;99.90;;;;;;2090853;28;20029;-76
2023/06/21 02:46:20;;;;;;;12.15;9.05;;;22.40;99.90;;;;;;2084669;28;20040;-77
2023/06/21 02:47:21;;;;;;;13.55;9.10;;;22.40;99.90;;;;;;2088199;28;20021;-77
2023/06/21 02:48:22;;;;;;;12.63;9.15;;;22.40;99.90;;;;;;2089546;28;20068;-76
2023/06/21 02:49:23;;;;;;;12.80;9.50;;;22.40;99.90;;;;;;2084885;28;20028;-76
2023/06/21 02:50:23;;;;;;;11.88;9.05;;;22.40;99.90;;;;;;2084908;28;20033;-76
2023/06/21 02:51:25;;;;;;;13.18;9.90;;;22.40;99.90;;;;;;2076034;28;20025;-76
2023/06/21 02:52:25;;;;;;;13.32;9.68;;;22.40;99.90;;;;;;2081010;28;20018;-77
2023/06/21 02:53:26;;;;;;;13.75;9.95;;;22.40;99.90;;;;;;2090988;28;20145;-77
2023/06/21 02:54:26;;;;;;;13.27;9.35;;;22.40;99.90;;;;;;2084197;28;20339;-75
2023/06/21 02:55:27;;;;;;;12.18;9.70;;;22.40;99.90;;;;;;2084159;28;20028;-75
2023/06/21 02:56:30;;;;;;;14.18;9.82;;;22.40;99.90;;;;;;2087702;28;20055;-75
2023/06/21 02:57:31;;;;;;;11.32;9.55;;;22.40;99.90;;;;;;2087772;28;20029;-75
2023/06/21 02:58:32;;;;;;;12.45;8.85;;;22.40;99.90;;;;;;2087655;28;20028;-76
2023/06/21 02:59:33;;;;;;;12.27;9.65;;;22.40;99.90;;;;;;2086725;28;20102;-76
2023/06/21 03:00:34;;;;;;;12.18;9.25;;;22.40;99.90;;;;;;2081183;28;20090;-76
2023/06/21 03:01:36;;;;;;;12.93;9.40;;;22.40;99.90;;;;;;2078787;28;20028;-69
2023/06/21 03:02:38;;;;;;;11.63;10.00;;;22.40;99.90;;;;;;2086569;28;20187;-76
2023/06/21 03:03:43;;;;;;;12.13;10.13;;;22.40;99.90;;;;;;2086539;28;20029;-70
2023/06/21 03:04:44;;;;;;;11.40;9.80;;;22.40;99.90;;;;;;2079227;28;20021;-70
2023/06/21 03:05:46;;;;;;;11.40;9.38;;;22.30;99.90;;;;;;2081229;28;20529;-70
2023/06/21 03:06:46;;;;;;;11.15;9.55;;;22.30;99.90;;;;;;2080026;28;20037;-70
2023/06/21 03:07:47;;;;;;;11.40;10.02;;;22.30;99.90;;;;;;2077901;28;20043;-70
2023/06/21 03:08:49;;;;;;;12.05;10.43;;;22.20;99.90;;;;;;2084918;28;20105;-70
2023/06/21 03:09:49;;;;;;;13.27;10.63;;;22.20;99.90;;;;;;2106109;28;20015;-71
2023/06/21 03:10:50;;;;;;;13.20;10.40;;;22.20;99.90;;;;;;2090353;28;20020;-70
2023/06/21 03:11:51;;;;;;;12.35;10.73;;;22.20;99.90;;;;;;2084594;28;20056;-70
2023/06/21 03:12:52;;;;;;;12.65;10.20;;;22.20;99.90;;;;;;2088618;28;20032;-70
2023/06/21 03:13:55;;;;;;;13.18;10.57;;;22.10;99.90;;;;;;2073160;28;20029;-70
2023/06/21 03:14:56;;;;;;;11.93;10.23;;;22.10;99.90;;;;;;2079876;28;20500;-69
2023/06/21 03:15:57;;;;;;;12.43;9.85;;;22.10;99.90;;;;;;2076009;28;20067;-70
2023/06/21 03:16:57;;;;;;;12.68;10.55;;;22.10;99.90;;;;;;2087659;28;20036;-69
2023/06/21 03:17:58;;;;;;;13.90;9.98;;;22.10;99.90;;;;;;2097214;28;20111;-68
2023/06/21 03:18:58;;;;;;;14.30;9.90;;;22.10;99.90;;;;;;2086626;28;20542;-69
2023/06/21 03:19:59;;;;;;;12.32;10.18;;;22.10;99.90;;;;;;2085417;28;20484;-68
2023/06/21 03:21:01;;;;;;;12.07;9.90;;;22.10;99.90;;;;;;2083459;28;20538;-70
2023/06/21 03:22:03;;;;;;;12.73;10.15;;;22.20;99.90;;;;;;2086973;28;20565;-68
2023/06/21 03:23:04;;;;;;;12.30;10.02;;;22.20;99.90;;;;;;2089896;28;20043;-69
2023/06/21 03:24:05;;;;;;;13.35;10.38;;;22.10;99.90;;;;;;2084979;28;20523;-69
2023/06/21 03:25:11;;;;;;;11.35;10.10;;;22.20;99.90;;;;;;2083521;28;20454;-69
2023/06/21 03:26:13;;;;;;;13.52;10.15;;;22.10;99.90;;;;;;2083885;28;20484;-69
2023/06/21 03:27:14;;;;;;;12.35;10.27;;;22.10;99.90;;;;;;2087994;28;20118;-70
2023/06/21 03:28:15;;;;;;;11.88;10.07;;;22.20;99.90;;;;;;2089036;28;20031;-70
2023/06/21 03:29:15;;;;;;;12.80;10.60;;;22.10;99.90;;;;;;2086548;28;20041;-70
2023/06/21 03:30:17;;;;;;;12.50;10.43;;;22.10;99.90;;;;;;2086432;28;20021;-70
2023/06/21 03:31:21;;;;;;;13.02;10.75;;;22.20;99.90;;;;;;2086930;28;20175;-70
2023/06/21 03:32:22;;;;;;;13.63;11.10;;;22.20;99.90;;;;;;2086492;28;20048;-69
2023/06/21 03:33:23;;;;;;;14.27;10.63;;;22.20;99.90;;;;;;2082821;28;20040;-69
2023/06/21 03:34:24;;;;;;;12.30;10.10;;;22.20;99.90;;;;;;2087843;28;20544;-70
2023/06/21 03:35:28;;;;;;;12.52;10.35;;;22.20;99.90;;;;;;2089696;28;20013;-70
2023/06/21 03:36:29;;;;;;;14.85;10.80;;;22.20;99.90;;;;;;2081214;28;20424;-69
2023/06/21 03:37:31;;;;;;;13.85;10.25;;;22.10;99.90;;;;;;2083479;28;20041;-70
2023/06/21 03:38:31;;;;;;;12.25;10.18;;;22.10;99.90;;;;;;2099789;28;20406;-70
2023/06/21 03:39:32;;;;;;;12.32;10.18;;;22.10;99.90;;;;;;2090039;28;20056;-70
2023/06/21 03:40:33;;;;;;;13.75;10.43;;;22.10;99.90;;;;;;2087198;28;20063;-69
2023/06/21 03:41:34;;;;;;;11.45;10.27;;;22.10;99.90;;;;;;2084534;28;20040;-69
2023/06/21 03:42:34;;;;;;;13.63;10.23;;;22.10;99.90;;;;;;2078503;28;20044;-69
2023/06/21 03:43:35;;;;;;;13.32;10.68;;;22.10;99.90;;;;;;2082805;28;20021;-69
2023/06/21 03:44:39;;;;;;;14.85;11.18;;;22.10;99.90;;;;;;2078642;28;20033;-69
2023/06/21 03:45:40;;;;;;;12.68;11.38;;;22.10;99.90;;;;;;2080743;28;20069;-70
2023/06/21 03:46:43;;;;;;;16.08;11.68;;;22.10;99.90;;;;;;2087499;28;20044;-69
2023/06/21 03:47:44;;;;;;;20.02;11.77;;;22.10;99.90;;;;;;2086079;28;20456;-69
2023/06/21 03:48:45;;;;;;;21.40;12.73;;;22.00;99.90;;;;;;2095574;28;20024;-69
2023/06/21 03:49:48;;;;;;;18.58;12.00;;;22.00;99.90;;;;;;2097383;28;20028;-69
2023/06/21 03:50:51;;;;;;;15.38;11.10;;;22.10;99.90;;;;;;2077149;28;20025;-69
2023/06/21 03:51:52;;;;;;;14.02;11.10;;;22.10;99.90;;;;;;2086249;28;20431;-69
2023/06/21 03:52:52;;;;;;;12.00;10.80;;;22.10;99.90;;;;;;2086238;28;20029;-70
2023/06/21 03:53:53;;;;;;;15.93;11.60;;;22.10;99.90;;;;;;2086540;28;20059;-69
2023/06/21 03:54:53;;;;;;;16.45;11.55;;;22.10;99.90;;;;;;2086534;28;20048;-69
2023/06/21 03:55:54;;;;;;;17.95;11.40;;;22.10;99.90;;;;;;2088582;28;20036;-69
2023/06/21 03:56:55;;;;;;;14.40;11.05;;;22.10;99.90;;;;;;2097145;28;20431;-70
2023/06/21 03:57:56;;;;;;;13.98;10.57;;;22.10;99.90;;;;;;2095923;28;20028;-72
2023/06/21 03:58:56;;;;;;;16.17;11.27;;;22.00;99.90;;;;;;2087712;28;21002;-70
2023/06/21 03:59:57;;;;;;;13.32;10.80;;;22.10;99.90;;;;;;2082755;28;20028;-70
2023/06/21 04:00:59;;;;;;;13.02;10.40;;;22.10;99.90;;;;;;2080408;28;20067;-70
2023/06/21 04:01:59;;;;;;;12.18;10.80;;;22.10;99.90;;;;;;2077717;28;20033;-71
2023/06/21 04:03:00;;;;;;;12.25;10.77;;;22.10;99.90;;;;;;2077687;28;20030;-71
2023/06/21 04:04:00;;;;;;;15.15;11.45;;;22.10;99.90;;;;;;2078724;28;20033;-71
2023/06/21 04:05:01;;;;;;;12.70;10.57;;;22.10;99.90;;;;;;2087152;28;20446;-68
2023/06/21 04:06:06;;;;;;;14.13;11.48;;;22.10;99.90;;;;;;2097179;28;20047;-70
2023/06/21 04:07:07;;;;;;;17.95;12.75;;;22.10;99.90;;;;;;2095421;28;20028;-70
2023/06/21 04:08:07;;;;;;;15.50;12.13;;;22.10;99.90;;;;;;2083922;28;20064;-70
2023/06/21 04:09:08;;;;;;;15.88;11.50;;;22.10;99.90;;;;;;2075586;28;20031;-70
2023/06/21 04:10:09;;;;;;;14.77;11.70;;;22.10;99.90;;;;;;2084644;28;20024;-71
2023/06/21 04:11:10;;;;;;;13.38;11.48;;;22.10;99.90;;;;;;2072738;28;20017;-71
2023/06/21 04:12:11;;;;;;;12.43;11.10;;;22.10;99.90;;;;;;2061545;28;20034;-71
2023/06/21 04:13:12;;;;;;;14.70;11.55;;;22.10;99.90;;;;;;2078090;28;20025;-71
2023/06/21 04:14:15;;;;;;;13.07;11.18;;;22.10;99.90;;;;;;2077608;28;20374;-69
2023/06/21 04:15:16;;;;;;;14.63;11.50;;;22.10;99.90;;;;;;2072222;28;20030;-70
2023/06/21 04:16:17;;;;;;;14.30;11.10;;;22.30;99.90;;;;;;2076742;28;20125;-70
2023/06/21 04:17:19;;;;;;;13.35;10.93;;;22.50;99.90;;;;;;2074431;28;20025;-69
2023/06/21 04:18:20;;;;;;;14.13;10.80;;;22.70;99.90;;;;;;2077196;28;20111;-68
2023/06/21 04:19:21;;;;;;;11.95;10.55;;;23.00;99.90;;;;;;2081558;28;20055;-70
2023/06/21 04:20:21;;;;;;;12.98;10.90;;;23.20;99.90;;;;;;2074946;28;20114;-70
2023/06/21 04:21:22;;;;;;;13.77;10.68;;;23.50;99.90;;;;;;2069474;28;20057;-69
2023/06/21 04:22:23;;;;;;;13.32;10.65;;;23.60;99.90;;;;;;2078176;28;20096;-69
2023/06/21 04:23:26;;;;;;;16.23;11.30;;;23.60;99.90;;;;;;2069500;28;20084;-70
2023/06/21 04:24:27;;;;;;;13.80;10.80;;;23.70;99.90;;;;;;2061630;28;20104;-71
2023/06/21 04:25:27;;;;;;;13.82;10.95;;;23.70;99.90;;;;;;2063046;28;20022;-71
2023/06/21 04:26:28;;;;;;;12.73;10.43;;;23.60;99.90;;;;;;2075696;28;20484;-70
2023/06/21 04:27:29;;;;;;;13.48;10.90;;;23.60;99.90;;;;;;2075266;28;20044;-71
2023/06/21 04:28:29;;;;;;;13.60;10.65;;;23.50;99.90;;;;;;2080123;28;20545;-71
2023/06/21 04:29:30;;;;;;;13.98;11.10;;;23.50;99.90;;;;;;2069444;28;20159;-71
2023/06/21 04:30:34;;;;;;;15.38;11.52;;;23.50;99.90;;;;;;2078151;28;20056;-72
2023/06/21 04:31:37;;;;;;;12.90;10.82;;;23.60;99.90;;;;;;2078757;28;20118;-71
2023/06/21 04:32:44;;;;;;;13.93;10.93;;;23.70;99.90;;;;;;2078346;28;20092;-71
2023/06/21 04:33:45;;;;;;;16.98;11.13;;;24.00;99.90;;;;;;2078559;28;20704;-70
2023/06/21 04:34:47;;;;;;;14.25;10.00;;;24.20;99.90;;;;;;2075934;28;20096;-70
2023/06/21 04:35:48;;;;;;;12.43;8.75;;;24.40;99.90;;;;;;2078540;28;20503;-71
2023/06/21 04:36:49;;;;;;;14.98;8.55;;;24.60;99.90;;;;;;2076257;28;20060;-71
2023/06/21 04:37:49;;;;;;;13.90;8.75;;;24.80;99.90;;;;;;2079178;28;20064;-70
2023/06/21 04:38:50;;;;;;;11.60;7.65;;;25.10;99.90;;;;;;2079202;28;20033;-70
2023/06/21 04:39:52;;;;;;;11.82;7.75;;;25.40;99.90;;;;;;2080775;28;20021;-70
2023/06/21 04:40:53;;;;;;;11.98;6.60;;;25.50;99.90;;;;;;2076350;28;20167;-71
2023/06/21 04:41:54;;;;;;;8.82;6.65;;;25.60;99.90;;;;;;2069928;28;20445;-70
2023/06/21 04:42:54;;;;;;;8.82;6.97;;;25.70;99.90;;;;;;2077428;28;20096;-70
2023/06/21 04:43:55;;;;;;;8.85;6.90;;;25.90;99.90;;;;;;2075753;28;20029;-71
2023/06/21 04:44:58;;;;;;;12.35;7.10;;;26.10;99.90;;;;;;2078831;28;20105;-73
2023/06/21 04:45:59;;;;;;;9.80;6.78;;;26.30;99.90;;;;;;2078664;28;20460;-70
2023/06/21 04:47:03;;;;;;;9.98;6.15;;;26.50;99.90;;;;;;2072743;28;20292;-70
2023/06/21 04:48:04;;;;;;;11.68;6.65;;;26.50;99.90;;;;;;2082636;28;20036;-70
2023/06/21 04:49:05;;;;;;;9.07;6.40;;;26.60;99.90;;;;;;2076772;28;20033;-70
2023/06/21 04:50:06;;;;;;;8.48;6.75;;;26.70;99.90;;;;;;2079066;28;20028;-70
2023/06/21 04:51:07;;;;;;;13.93;7.07;;;26.80;99.90;;;;;;2080223;28;20523;-70
2023/06/21 04:52:09;;;;;;;11.02;7.03;;;26.80;99.90;;;;;;2078428;28;23002;-70
2023/06/21 04:53:10;;;;;;;9.93;6.75;;;26.90;99.90;;;;;;2077674;28;20034;-70
2023/06/21 04:54:10;;;;;;;10.73;7.07;;;27.00;99.90;;;;;;2073880;28;20370;-69
2023/06/21 04:55:12;;;;;;;11.50;6.50;;;27.00;99.90;;;;;;2077185;28;20639;-71
2023/06/21 04:56:13;;;;;;;12.90;6.28;;;26.90;99.90;;;;;;2078897;28;20559;-70
2023/06/21 04:57:16;;;;;;;9.45;5.50;;;26.90;99.90;;;;;;2080266;28;20030;-69
2023/06/21 04:58:17;;;;;;;7.60;5.25;;;27.00;99.90;;;;;;2078722;28;20029;-69
2023/06/21 04:59:18;;;;;;;8.75;5.75;;;27.00;99.90;;;;;;2078963;28;20036;-69
2023/06/21 05:00:19;;;;;;;10.70;5.78;;;27.10;99.90;;;;;;2071531;28;20056;-70
2023/06/21 05:01:20;;;;;;;7.53;5.57;;;27.30;99.90;;;;;;2084209;28;20070;-70
2023/06/21 05:02:20;;;;;;;8.85;5.30;;;27.50;99.90;;;;;;2078353;28;20082;-69
2023/06/21 05:03:21;;;;;;;10.07;5.75;;;27.70;99.90;;;;;;2077372;28;20017;-70
2023/06/21 05:04:21;;;;;;;10.52;5.63;;;27.80;99.90;;;;;;2075096;28;20021;-70
2023/06/21 05:05:22;;;;;;;8.77;4.97;;;27.90;99.90;;;;;;2080592;28;20037;-70
2023/06/21 05:06:25;;;;;;;7.40;4.80;;;28.00;99.90;;;;;;2077099;28;20564;-71
2023/06/21 05:07:25;;;;;;;7.85;4.65;;;28.20;99.90;;;;;;2076465;28;20033;-70
2023/06/21 05:08:26;;;;;;;9.52;5.10;;;28.40;99.90;;;;;;2079501;28;20029;-69
2023/06/21 05:09:27;;;;;;;5.90;4.72;;;28.50;99.90;;;;;;2076244;28;20267;-70
2023/06/21 05:10:27;;;;;;;6.57;4.80;;;28.70;99.90;;;;;;2078690;28;20036;-70
2023/06/21 05:11:28;;;;;;;8.25;4.97;;;28.90;99.90;;;;;;2079937;28;21055;-71
2023/06/21 05:12:29;;;;;;;8.27;4.57;;;28.90;99.90;;;;;;2085743;28;20495;-70
2023/06/21 05:13:29;;;;;;;7.38;4.30;;;28.70;99.20;;;;;;2086591;28;20029;-73
2023/06/21 05:14:30;;;;;;;6.03;4.50;;;28.70;99.60;;;;;;2086567;28;20061;-73
2023/06/21 05:15:30;;;;;;;6.47;4.00;;;28.80;99.30;;;;;;2089796;28;20550;-74
2023/06/21 05:16:31;;;;;;;7.72;4.40;;;29.00;99.10;;;;;;2083411;28;20144;-74
2023/06/21 05:17:32;;;;;;;7.07;4.20;;;29.10;99.10;;;;;;2084653;28;20036;-73